Dundee, Oregon
Current Conditions -  °F | °C
As of 8:53 AM on Thursday 23 Oct 2014 (Local Time) from KMMV Reporting Station
Light Rain Light Rain  
Wind Chill: 13°   Ceiling: 4100
Heat Index: 13°   Visibility: 10mi
Dew Point: 12°   Wind: 9mph
Humidity: 93%   Direction: 230°SW
Pressure: 29.83"   Gusts: NA
Location:  45.28°N, 123.01°W
Report Text: KMMV 231553Z AUTO 23008KT 10SM -RA FEW009 SCT022 OVC041 13/12 A2983 RMK AO2 RAB18 SLP099 P0001 T01280117
Loading
Personal Weather Stations






























Interactive Weather Map
Tropical Storm Tracking
New forecast layout! Learn more

10-Day Weather Forecast

Advertisements
Track Severe Weather on mobile